Time;durP1;ratioP1;P1;durP2;ratioP2;P2;SDS_P1;SDS_P2;PMS_P1;PMS_P2;Temp;Humidity;BMP_temperature;BMP_pressure;BME280_temperature;BME280_humidity;BME280_pressure;Samples;Min_cycle;Max_cycle;Signal;HPM_P1;HPM_P2
2023/09/13 00:00:15;;;;;;;2.55;1.15;;;18.30;99.90;;;;;;4990205;28;20051;-63
2023/09/13 00:02:41;;;;;;;2.35;0.95;;;18.30;99.90;;;;;;4965692;28;20456;-64
2023/09/13 00:05:08;;;;;;;2.65;1.02;;;18.40;99.90;;;;;;4965992;28;20097;-63
2023/09/13 00:07:34;;;;;;;2.90;0.80;;;18.30;99.90;;;;;;4964935;28;20043;-63
2023/09/13 00:10:00;;;;;;;4.40;1.27;;;18.30;99.90;;;;;;4967210;28;20057;-63
2023/09/13 00:12:26;;;;;;;2.42;0.90;;;18.30;99.90;;;;;;4966859;28;20046;-63
2023/09/13 00:14:52;;;;;;;2.42;0.93;;;18.40;99.90;;;;;;5032865;28;20074;-64
2023/09/13 00:17:21;;;;;;;3.00;0.95;;;18.30;99.90;;;;;;5033436;28;20078;-64
2023/09/13 00:19:47;;;;;;;;;;;18.40;99.90;;;;;;5026462;28;20049;-63
2023/09/13 00:22:13;;;;;;;1.67;0.85;;;18.40;99.90;;;;;;5032971;28;19926;-63
2023/09/13 00:24:39;;;;;;;1.52;0.98;;;18.40;99.90;;;;;;5017010;28;20485;-63
2023/09/13 00:27:05;;;;;;;4.10;1.70;;;18.30;99.90;;;;;;5017250;28;20104;-64
2023/09/13 00:29:33;;;;;;;1.85;0.90;;;18.30;99.90;;;;;;5032992;28;20043;-64
2023/09/13 00:32:02;;;;;;;1.67;0.90;;;18.30;99.90;;;;;;5033094;28;20059;-64
2023/09/13 00:34:29;;;;;;;3.58;1.30;;;18.20;99.90;;;;;;5033517;28;20486;-64
2023/09/13 00:36:55;;;;;;;1.58;0.80;;;18.20;99.90;;;;;;5032509;28;20086;-63
2023/09/13 00:39:21;;;;;;;2.83;1.20;;;18.20;99.90;;;;;;5033665;28;20082;-64
2023/09/13 00:41:47;;;;;;;1.48;0.75;;;18.10;99.90;;;;;;5017114;28;20097;-64
2023/09/13 00:44:12;;;;;;;3.22;0.80;;;18.00;99.90;;;;;;5019609;28;20045;-64
2023/09/13 00:46:38;;;;;;;5.38;1.25;;;17.90;99.90;;;;;;5036809;28;20138;-64
2023/09/13 00:49:05;;;;;;;2.53;0.90;;;17.90;99.90;;;;;;5036389;28;20076;-63
2023/09/13 00:51:31;;;;;;;2.10;0.82;;;17.90;99.90;;;;;;5035637;28;20038;-63
2023/09/13 00:53:58;;;;;;;2.67;0.95;;;17.90;99.90;;;;;;5036455;28;20054;-64
2023/09/13 00:56:25;;;;;;;2.42;0.80;;;17.80;99.90;;;;;;5035933;28;20120;-64
2023/09/13 00:58:51;;;;;;;8.25;1.00;;;17.80;99.90;;;;;;5019568;28;20144;-64
2023/09/13 01:01:17;;;;;;;1.85;0.90;;;17.80;99.90;;;;;;4968700;28;20065;-64
2023/09/13 01:03:44;;;;;;;1.70;0.90;;;17.80;99.90;;;;;;4967486;28;20050;-64
2023/09/13 01:06:11;;;;;;;2.78;1.10;;;17.80;99.90;;;;;;4968463;28;20043;-64
2023/09/13 01:08:45;;;;;;;3.00;0.95;;;17.80;99.90;;;;;;4983220;28;20035;-64
2023/09/13 01:11:11;;;;;;;2.72;1.35;;;17.70;99.90;;;;;;5035880;28;20050;-64
2023/09/13 01:13:37;;;;;;;3.55;0.90;;;17.70;99.90;;;;;;5036227;28;20057;-63
2023/09/13 01:16:29;;;;;;;3.33;0.85;;;17.70;99.90;;;;;;5028874;28;20050;-64
2023/09/13 01:19:25;;;;;;;2.20;1.00;;;17.70;99.90;;;;;;5035515;28;20039;-64
2023/09/13 01:22:09;;;;;;;3.38;0.82;;;17.70;99.90;;;;;;5035955;28;20521;-62
2023/09/13 01:24:57;;;;;;;2.35;0.95;;;17.70;99.90;;;;;;5035672;28;20066;-63
2023/09/13 01:27:38;;;;;;;1.73;0.73;;;17.70;99.90;;;;;;5019393;28;20039;-64
2023/09/13 01:30:07;;;;;;;1.85;0.70;;;17.60;99.90;;;;;;5047785;28;20049;-63
2023/09/13 01:32:36;;;;;;;3.75;0.70;;;17.60;99.90;;;;;;5032421;28;20464;-63
2023/09/13 01:35:02;;;;;;;4.82;1.15;;;17.60;99.90;;;;;;5032933;28;20045;-64
2023/09/13 01:37:31;;;;;;;1.23;0.47;;;17.60;99.90;;;;;;5033360;28;20044;-63
2023/09/13 01:39:57;;;;;;;2.53;0.95;;;17.50;99.90;;;;;;5031967;28;20144;-63
2023/09/13 01:42:24;;;;;;;0.85;0.47;;;17.50;99.90;;;;;;5032476;28;20489;-63
2023/09/13 01:44:50;;;;;;;1.83;1.00;;;17.60;99.90;;;;;;5032428;28;20041;-64
2023/09/13 01:47:18;;;;;;;2.63;0.73;;;17.50;99.90;;;;;;5032024;28;20453;-63
2023/09/13 01:49:45;;;;;;;0.68;0.50;;;17.50;99.90;;;;;;5032665;28;20453;-63
2023/09/13 01:52:11;;;;;;;1.23;0.50;;;17.50;99.90;;;;;;5032487;28;20409;-63
2023/09/13 01:54:37;;;;;;;4.90;0.63;;;17.50;99.90;;;;;;5030874;28;20207;-64
2023/09/13 01:57:03;;;;;;;3.13;0.60;;;17.50;99.90;;;;;;5032080;28;20493;-63
2023/09/13 01:59:30;;;;;;;1.15;0.45;;;17.50;99.90;;;;;;5035749;28;20078;-63
2023/09/13 02:01:56;;;;;;;1.80;0.90;;;17.50;99.90;;;;;;5052225;28;20127;-63
2023/09/13 02:04:22;;;;;;;2.00;1.10;;;17.40;99.90;;;;;;5052412;28;20527;-63
2023/09/13 02:06:48;;;;;;;1.05;0.57;;;17.40;99.90;;;;;;5052025;28;20436;-63
2023/09/13 02:09:14;;;;;;;2.78;0.80;;;17.40;99.90;;;;;;5040254;28;20047;-64
2023/09/13 02:11:39;;;;;;;0.95;0.65;;;17.40;99.90;;;;;;5025009;28;20400;-63
2023/09/13 02:14:05;;;;;;;4.30;1.15;;;17.40;99.90;;;;;;5031545;28;20052;-63
2023/09/13 02:16:31;;;;;;;1.85;0.77;;;17.30;99.90;;;;;;5031763;28;20037;-63
2023/09/13 02:18:57;;;;;;;1.63;0.70;;;17.30;99.90;;;;;;5031773;28;20040;-63
2023/09/13 02:21:23;;;;;;;2.10;0.85;;;17.30;99.90;;;;;;5031649;28;20045;-63
2023/09/13 02:23:49;;;;;;;3.72;0.65;;;17.30;99.90;;;;;;5049734;28;20045;-64
2023/09/13 02:26:24;;;;;;;1.25;0.63;;;17.30;99.90;;;;;;5031847;28;20076;-63
2023/09/13 02:28:51;;;;;;;3.83;0.60;;;17.30;99.90;;;;;;5031474;28;20374;-63
2023/09/13 02:31:27;;;;;;;3.13;0.70;;;17.20;99.90;;;;;;5031495;28;20604;-63
2023/09/13 02:33:54;;;;;;;2.30;0.70;;;17.20;99.90;;;;;;5031809;28;20033;-63
2023/09/13 02:36:20;;;;;;;1.13;0.57;;;17.10;99.90;;;;;;5031165;28;20712;-63
2023/09/13 02:38:46;;;;;;;1.38;0.77;;;17.10;99.90;;;;;;5031580;28;20485;-63
2023/09/13 02:41:12;;;;;;;0.85;0.40;;;17.10;99.90;;;;;;5031528;28;20053;-63
2023/09/13 02:43:42;;;;;;;4.55;0.80;;;17.10;99.90;;;;;;5045432;28;20036;-63
2023/09/13 02:46:07;;;;;;;1.00;0.57;;;17.10;99.90;;;;;;5046985;28;20036;-63
2023/09/13 02:48:34;;;;;;;3.33;0.68;;;17.00;99.90;;;;;;5031265;28;20040;-63
2023/09/13 02:51:00;;;;;;;1.98;0.40;;;17.00;99.90;;;;;;5031701;28;20578;-63
2023/09/13 02:53:26;;;;;;;1.05;0.77;;;17.00;99.90;;;;;;5031654;28;20044;-62
2023/09/13 02:55:52;;;;;;;0.70;0.40;;;17.00;99.90;;;;;;5030660;28;20505;-63
2023/09/13 02:58:17;;;;;;;1.83;0.75;;;16.90;99.90;;;;;;5048997;28;20037;-62
2023/09/13 03:00:43;;;;;;;2.28;0.45;;;17.00;99.90;;;;;;5048448;28;20509;-63
2023/09/13 03:03:09;;;;;;;1.17;0.50;;;16.90;99.90;;;;;;5050479;28;20596;-63
2023/09/13 03:05:36;;;;;;;2.28;0.85;;;16.90;99.90;;;;;;5038076;28;20032;-63
2023/09/13 03:08:03;;;;;;;1.73;0.60;;;16.90;99.90;;;;;;5023877;28;20041;-63
2023/09/13 03:10:29;;;;;;;1.55;0.70;;;16.90;99.90;;;;;;5030470;28;20101;-63
2023/09/13 03:12:55;;;;;;;1.77;0.98;;;16.90;99.90;;;;;;5031117;28;20393;-63
2023/09/13 03:15:21;;;;;;;1.42;0.68;;;16.90;99.90;;;;;;5030893;28;20053;-63
2023/09/13 03:17:47;;;;;;;3.05;0.60;;;16.80;99.90;;;;;;5030188;28;20036;-63
2023/09/13 03:20:13;;;;;;;0.70;0.40;;;16.80;99.90;;;;;;5031098;28;20036;-63
2023/09/13 03:22:38;;;;;;;2.08;0.93;;;16.80;99.90;;;;;;5031011;28;20091;-63
2023/09/13 03:25:05;;;;;;;1.55;0.30;;;16.80;99.90;;;;;;5030390;28;20557;-63
2023/09/13 03:27:33;;;;;;;0.35;0.25;;;16.80;99.90;;;;;;5031219;28;20037;-63
2023/09/13 03:29:59;;;;;;;2.28;0.73;;;16.70;99.90;;;;;;5030931;28;20649;-63
2023/09/13 03:32:25;;;;;;;4.82;0.60;;;16.70;99.90;;;;;;5030409;28;20043;-63
2023/09/13 03:34:51;;;;;;;2.55;0.63;;;16.70;99.90;;;;;;5030827;28;20057;-63
2023/09/13 03:37:18;;;;;;;0.60;0.30;;;16.70;99.90;;;;;;5013966;28;20044;-62
2023/09/13 03:39:43;;;;;;;1.15;0.38;;;16.60;99.90;;;;;;5030325;28;20052;-63
2023/09/13 03:42:09;;;;;;;1.65;0.55;;;16.60;99.90;;;;;;5030404;28;20045;-63
2023/09/13 03:44:35;;;;;;;1.33;0.52;;;16.60;99.90;;;;;;5029898;28;20041;-63
2023/09/13 03:47:01;;;;;;;1.25;0.57;;;16.60;99.90;;;;;;5030564;28;20067;-62
2023/09/13 03:49:26;;;;;;;3.05;0.50;;;16.60;99.90;;;;;;5030454;28;20068;-62
2023/09/13 03:51:52;;;;;;;5.00;0.90;;;16.50;99.90;;;;;;5046771;28;20048;-62
2023/09/13 03:54:18;;;;;;;2.63;1.00;;;16.50;99.90;;;;;;5030631;28;20490;-62
2023/09/13 03:56:44;;;;;;;0.57;0.47;;;16.50;99.90;;;;;;5014186;28;20060;-63
2023/09/13 03:59:09;;;;;;;1.05;0.40;;;16.50;99.90;;;;;;5034350;28;20045;-63
2023/09/13 04:01:35;;;;;;;0.95;0.60;;;16.40;99.90;;;;;;5050657;28;20087;-63
2023/09/13 04:04:01;;;;;;;3.95;0.63;;;16.40;99.90;;;;;;5033595;28;20405;-63
2023/09/13 04:06:27;;;;;;;0.98;0.50;;;16.40;99.90;;;;;;5029909;28;20037;-62
2023/09/13 04:08:53;;;;;;;1.08;0.68;;;16.50;99.90;;;;;;5030702;28;20033;-62
2023/09/13 04:11:18;;;;;;;1.17;0.28;;;16.50;99.90;;;;;;5047014;28;20107;-62
2023/09/13 04:13:44;;;;;;;0.52;0.52;;;16.50;99.90;;;;;;5013339;28;20183;-62
2023/09/13 04:16:14;;;;;;;1.27;0.50;;;16.40;99.90;;;;;;5030248;28;20136;-61
2023/09/13 04:18:40;;;;;;;1.48;0.50;;;16.40;99.90;;;;;;5033924;28;20114;-62
2023/09/13 04:21:06;;;;;;;0.55;0.20;;;16.40;99.90;;;;;;5016900;28;20488;-62
2023/09/13 04:23:31;;;;;;;0.17;0.10;;;16.30;99.90;;;;;;5034193;28;20409;-61
2023/09/13 04:25:57;;;;;;;2.85;0.30;;;16.30;99.90;;;;;;5033932;28;20037;-62
2023/09/13 04:28:23;;;;;;;4.28;0.30;;;16.20;99.90;;;;;;5033525;28;20041;-63
2023/09/13 04:30:49;;;;;;;0.55;0.35;;;16.20;99.90;;;;;;5051789;28;20060;-62
2023/09/13 04:33:16;;;;;;;0.10;0.10;;;16.20;99.90;;;;;;5033874;28;20488;-63
2023/09/13 04:35:42;;;;;;;3.30;0.50;;;16.20;99.90;;;;;;5045121;28;20303;-63
2023/09/13 04:38:08;;;;;;;0.70;0.35;;;16.10;99.90;;;;;;5053519;28;20044;-61
2023/09/13 04:40:34;;;;;;;0.98;0.40;;;16.10;99.90;;;;;;5050998;28;20049;-61
2023/09/13 04:43:06;;;;;;;0.47;0.38;;;16.10;99.90;;;;;;5017096;28;20045;-62
2023/09/13 04:45:33;;;;;;;0.20;0.20;;;16.00;99.90;;;;;;5033748;28;20033;-60
2023/09/13 04:47:59;;;;;;;0.35;0.10;;;15.90;99.90;;;;;;5033110;28;20045;-61
2023/09/13 04:50:24;;;;;;;0.22;0.20;;;15.80;99.90;;;;;;5033459;28;20041;-61
2023/09/13 04:52:50;;;;;;;0.95;0.30;;;15.70;99.90;;;;;;5033668;28;20040;-62
2023/09/13 04:55:20;;;;;;;0.30;0.25;;;15.60;99.90;;;;;;5032771;28;20076;-63
2023/09/13 04:57:45;;;;;;;1.02;0.30;;;15.60;99.90;;;;;;5033333;28;20095;-62
2023/09/13 05:00:14;;;;;;;1.33;0.30;;;15.60;99.90;;;;;;5030583;28;20041;-62
2023/09/13 05:02:40;;;;;;;1.38;0.68;;;15.60;99.90;;;;;;5032854;28;20454;-63
2023/09/13 05:05:07;;;;;;;0.90;0.43;;;15.50;99.90;;;;;;5051109;28;20111;-63
2023/09/13 05:07:32;;;;;;;2.35;0.55;;;15.50;99.90;;;;;;5033151;28;20037;-63
2023/09/13 05:09:58;;;;;;;2.60;0.60;;;15.40;99.90;;;;;;5032766;28;20037;-63
2023/09/13 05:12:24;;;;;;;3.00;0.60;;;15.30;99.90;;;;;;5016655;28;20049;-63
2023/09/13 05:14:50;;;;;;;0.38;0.20;;;15.30;99.90;;;;;;5033075;28;20051;-63
2023/09/13 05:17:16;;;;;;;1.42;0.60;;;15.30;99.90;;;;;;5050018;28;20078;-62
2023/09/13 05:19:41;;;;;;;1.83;0.45;;;15.30;99.90;;;;;;5052844;28;20044;-62
2023/09/13 05:22:07;;;;;;;1.10;0.52;;;15.20;99.90;;;;;;5038128;28;20052;-63
2023/09/13 05:24:33;;;;;;;3.50;0.68;;;15.20;99.90;;;;;;5032370;28;20088;-62
2023/09/13 05:26:59;;;;;;;0.65;0.50;;;15.20;99.90;;;;;;5032977;28;20041;-63
2023/09/13 05:29:25;;;;;;;1.02;0.45;;;15.20;99.90;;;;;;5032369;28;20520;-63
2023/09/13 05:31:50;;;;;;;1.63;1.02;;;15.20;99.90;;;;;;5032500;28;20056;-63
2023/09/13 05:34:16;;;;;;;3.25;1.00;;;15.20;99.90;;;;;;5016553;28;20048;-63
2023/09/13 05:36:42;;;;;;;0.95;0.35;;;15.20;99.90;;;;;;5032509;28;20033;-62
2023/09/13 05:39:12;;;;;;;2.03;0.63;;;15.20;99.90;;;;;;5032282;28;20488;-63
2023/09/13 05:41:38;;;;;;;0.93;0.38;;;15.20;99.90;;;;;;5053233;28;20138;-62
2023/09/13 05:44:09;;;;;;;0.22;0.20;;;15.20;99.90;;;;;;5051758;28;20083;-62
2023/09/13 05:46:35;;;;;;;2.83;0.52;;;15.20;99.90;;;;;;5053022;28;20559;-62
2023/09/13 05:49:01;;;;;;;1.73;0.50;;;15.10;99.90;;;;;;5053284;28;20035;-62
2023/09/13 05:51:27;;;;;;;2.20;0.40;;;15.10;99.90;;;;;;5052574;28;20413;-62
2023/09/13 05:53:52;;;;;;;1.45;0.40;;;15.10;99.90;;;;;;5052567;28;20054;-62
2023/09/13 05:56:18;;;;;;;1.05;0.32;;;15.10;99.90;;;;;;5060820;28;20183;-62
2023/09/13 05:58:44;;;;;;;0.98;0.35;;;15.10;99.90;;;;;;5032813;28;20123;-61
2023/09/13 06:01:13;;;;;;;1.92;0.55;;;15.00;99.90;;;;;;5044789;28;20045;-63
2023/09/13 06:03:38;;;;;;;2.03;0.60;;;14.90;99.90;;;;;;5032082;28;20049;-62
2023/09/13 06:06:04;;;;;;;3.28;0.60;;;14.90;99.90;;;;;;5031380;28;20099;-61
2023/09/13 06:08:30;;;;;;;5.28;1.45;;;14.80;99.90;;;;;;5032061;28;20040;-62
2023/09/13 06:10:56;;;;;;;1.52;0.63;;;14.70;99.90;;;;;;5032038;28;20041;-61
2023/09/13 06:13:22;;;;;;;1.60;0.93;;;14.60;99.90;;;;;;5031318;28;20123;-62
2023/09/13 06:15:47;;;;;;;4.30;1.00;;;14.60;99.90;;;;;;5052028;28;20044;-63
2023/09/13 06:18:13;;;;;;;2.28;0.82;;;14.50;99.90;;;;;;5051459;28;20036;-62
2023/09/13 06:20:39;;;;;;;2.17;0.70;;;14.50;99.90;;;;;;5051717;28;20551;-62
2023/09/13 06:23:05;;;;;;;3.50;0.63;;;14.40;99.90;;;;;;5052697;28;20036;-61
2023/09/13 06:25:31;;;;;;;3.60;1.00;;;14.40;99.90;;;;;;5035280;28;20373;-62
2023/09/13 06:27:56;;;;;;;4.90;0.90;;;14.40;99.90;;;;;;5052480;28;20040;-62
2023/09/13 06:30:22;;;;;;;1.48;0.70;;;14.40;99.90;;;;;;5046795;28;20129;-62
2023/09/13 06:32:48;;;;;;;1.02;0.50;;;14.40;99.90;;;;;;5031513;28;20053;-63
2023/09/13 06:35:14;;;;;;;1.75;0.50;;;14.40;99.90;;;;;;5031330;28;20055;-62
2023/09/13 06:37:40;;;;;;;1.00;0.80;;;14.40;99.90;;;;;;5032748;28;20115;-62
2023/09/13 06:40:07;;;;;;;3.10;1.08;;;14.50;99.90;;;;;;5031198;28;20048;-62
2023/09/13 06:42:33;;;;;;;2.90;1.13;;;14.60;99.90;;;;;;5021139;28;20041;-62
2023/09/13 06:45:00;;;;;;;1.83;1.05;;;14.60;99.90;;;;;;5031675;28;20107;-62
2023/09/13 06:47:28;;;;;;;4.05;0.70;;;14.70;99.90;;;;;;5031474;28;20481;-62
2023/09/13 06:49:55;;;;;;;1.52;0.88;;;14.80;99.90;;;;;;5032351;28;20057;-62
2023/09/13 06:52:21;;;;;;;1.58;0.77;;;14.90;99.90;;;;;;5015537;28;20049;-62
2023/09/13 06:54:47;;;;;;;4.05;0.73;;;15.00;99.90;;;;;;5031461;28;20036;-62
2023/09/13 06:57:13;;;;;;;4.72;0.63;;;15.10;99.90;;;;;;5031886;28;20481;-62
2023/09/13 06:59:39;;;;;;;4.68;1.00;;;15.20;99.90;;;;;;5032430;28;20098;-61
2023/09/13 07:02:06;;;;;;;1.60;0.95;;;15.20;99.90;;;;;;5031295;28;20097;-62
2023/09/13 07:04:32;;;;;;;2.72;0.90;;;15.30;99.90;;;;;;5032257;28;20041;-62
2023/09/13 07:06:58;;;;;;;6.40;1.33;;;15.30;99.90;;;;;;5031797;28;20128;-62
2023/09/13 07:09:24;;;;;;;5.63;0.63;;;15.40;99.90;;;;;;5031107;28;20048;-62
2023/09/13 07:11:50;;;;;;;0.90;0.52;;;15.40;99.90;;;;;;5031005;28;20033;-62
2023/09/13 07:14:16;;;;;;;1.60;0.60;;;15.40;99.90;;;;;;5031556;28;20120;-62
2023/09/13 07:16:41;;;;;;;3.47;1.30;;;15.50;99.90;;;;;;5031233;28;20473;-62
2023/09/13 07:19:07;;;;;;;3.55;1.00;;;15.50;99.90;;;;;;5031827;28;20052;-63
2023/09/13 07:21:33;;;;;;;1.58;0.88;;;15.60;99.90;;;;;;5031282;28;20499;-62
2023/09/13 07:23:59;;;;;;;2.28;0.80;;;15.60;99.90;;;;;;5031652;28;20037;-64
2023/09/13 07:26:25;;;;;;;1.95;0.60;;;15.60;99.90;;;;;;5031705;28;20049;-63
2023/09/13 07:28:50;;;;;;;2.72;0.65;;;15.60;99.90;;;;;;5031248;28;20165;-63
2023/09/13 07:31:23;;;;;;;1.70;0.80;;;15.50;99.90;;;;;;5032873;28;20060;-63
2023/09/13 07:33:55;;;;;;;4.15;0.60;;;15.60;99.90;;;;;;5015015;28;20128;-62
2023/09/13 07:36:22;;;;;;;6.57;1.25;;;15.70;99.90;;;;;;5031317;28;20404;-63
2023/09/13 07:38:48;;;;;;;2.28;1.48;;;15.80;99.90;;;;;;5015421;28;20067;-63
2023/09/13 07:41:14;;;;;;;3.50;0.93;;;15.90;99.90;;;;;;5044456;28;20127;-64
2023/09/13 07:43:40;;;;;;;1.67;0.90;;;15.90;99.90;;;;;;5050206;28;20083;-62
2023/09/13 07:46:06;;;;;;;1.73;0.88;;;15.90;99.90;;;;;;5051252;28;20102;-63
2023/09/13 07:48:32;;;;;;;1.42;0.77;;;15.80;99.90;;;;;;5034530;28;20036;-64
2023/09/13 07:50:58;;;;;;;1.55;0.60;;;15.70;99.90;;;;;;5040610;28;20037;-64
2023/09/13 07:53:25;;;;;;;2.58;0.63;;;15.60;99.90;;;;;;5035326;28;20127;-63
2023/09/13 07:55:52;;;;;;;1.90;0.88;;;15.60;99.90;;;;;;5030886;28;20053;-63
2023/09/13 07:58:22;;;;;;;1.55;0.90;;;15.60;99.90;;;;;;5034881;28;20180;-63
2023/09/13 08:00:51;;;;;;;2.70;0.68;;;15.50;99.90;;;;;;5036839;28;20048;-63
2023/09/13 08:03:31;;;;;;;1.45;0.65;;;15.40;99.90;;;;;;5051453;28;20400;-63
2023/09/13 08:06:03;;;;;;;0.20;0.20;;;15.50;99.90;;;;;;5049047;28;20045;-63
2023/09/13 08:08:33;;;;;;;3.42;0.60;;;15.50;99.90;;;;;;5018682;28;20481;-63
2023/09/13 08:11:03;;;;;;;1.45;0.52;;;15.60;99.90;;;;;;5034566;28;20120;-63
2023/09/13 08:13:30;;;;;;;0.60;0.30;;;15.60;99.90;;;;;;5034647;28;20409;-63
2023/09/13 08:15:56;;;;;;;4.18;0.28;;;15.70;99.90;;;;;;5033765;28;20048;-63
2023/09/13 08:18:21;;;;;;;1.48;0.50;;;15.80;99.90;;;;;;5033525;28;20044;-63
2023/09/13 08:20:47;;;;;;;1.65;0.57;;;15.80;99.90;;;;;;5033828;28;20045;-62
2023/09/13 08:23:13;;;;;;;4.60;0.52;;;15.90;99.90;;;;;;5033864;28;20037;-63
2023/09/13 08:25:39;;;;;;;1.23;0.43;;;16.00;99.90;;;;;;5033443;28;20056;-63
2023/09/13 08:28:05;;;;;;;2.08;0.55;;;16.10;99.90;;;;;;5017494;28;20404;-63
2023/09/13 08:30:31;;;;;;;1.40;0.50;;;16.10;99.90;;;;;;5035235;28;20052;-63
2023/09/13 08:33:11;;;;;;;0.75;0.47;;;16.20;99.90;;;;;;5032695;28;20583;-63
2023/09/13 08:35:38;;;;;;;2.28;0.25;;;16.20;99.90;;;;;;5013343;28;20107;-63
2023/09/13 08:38:05;;;;;;;3.47;0.45;;;16.20;99.90;;;;;;5013974;28;20049;-63
2023/09/13 08:40:31;;;;;;;1.52;0.50;;;16.50;99.90;;;;;;5013318;28;20414;-62
2023/09/13 08:42:57;;;;;;;0.93;0.40;;;16.70;99.90;;;;;;4997304;28;20516;-62
2023/09/13 08:45:23;;;;;;;3.45;0.45;;;17.30;99.90;;;;;;5020676;28;20037;-68
2023/09/13 08:47:51;;;;;;;1.05;0.40;;;17.40;99.90;;;;;;5033323;28;20072;-68
2023/09/13 08:50:23;;;;;;;2.42;0.60;;;17.40;99.90;;;;;;5046479;28;20385;-68
2023/09/13 08:52:50;;;;;;;1.40;0.40;;;17.30;99.90;;;;;;5053732;28;20041;-68
2023/09/13 08:55:18;;;;;;;0.63;0.28;;;17.20;99.90;;;;;;5014671;28;20055;-67
2023/09/13 08:57:47;;;;;;;2.30;0.55;;;17.20;99.90;;;;;;5033722;28;20516;-68
2023/09/13 09:00:14;;;;;;;4.70;0.85;;;17.30;99.90;;;;;;5016880;28;20129;-68
2023/09/13 09:02:42;;;;;;;2.55;0.57;;;17.80;99.90;;;;;;5043957;28;20496;-68
2023/09/13 09:05:12;;;;;;;2.08;0.57;;;18.80;99.90;;;;;;5025982;28;20041;-68
2023/09/13 09:07:40;;;;;;;0.65;0.52;;;19.60;99.90;;;;;;5032388;28;20071;-70
2023/09/13 09:10:11;;;;;;;1.40;0.68;;;20.00;99.90;;;;;;5032439;28;20037;-69
2023/09/13 09:12:44;;;;;;;0.52;0.30;;;20.10;99.90;;;;;;5032894;28;20076;-69
2023/09/13 09:15:13;;;;;;;0.82;0.30;;;19.90;99.90;;;;;;5031915;28;20053;-68
2023/09/13 09:17:41;;;;;;;2.90;0.75;;;19.70;99.90;;;;;;5033067;28;20049;-68
2023/09/13 09:20:08;;;;;;;0.30;0.20;;;19.30;99.90;;;;;;5047221;28;20404;-68
2023/09/13 09:22:34;;;;;;;1.13;0.40;;;18.90;99.90;;;;;;5051233;28;20041;-68
2023/09/13 09:25:00;;;;;;;1.33;0.50;;;18.50;99.90;;;;;;5053718;28;20076;-68
2023/09/13 09:27:27;;;;;;;1.65;0.40;;;18.10;99.90;;;;;;5053302;28;20055;-68
2023/09/13 09:30:04;;;;;;;0.77;0.55;;;17.80;99.90;;;;;;5053797;28;20412;-68
2023/09/13 09:32:30;;;;;;;4.03;1.00;;;17.50;99.90;;;;;;5033704;28;20057;-67
2023/09/13 09:34:58;;;;;;;3.05;0.80;;;17.30;99.90;;;;;;5032778;28;20119;-68
2023/09/13 09:37:33;;;;;;;6.57;1.20;;;17.10;99.90;;;;;;5033675;28;20052;-68
2023/09/13 09:39:59;;;;;;;3.03;0.75;;;17.00;99.90;;;;;;5033571;28;20445;-68
2023/09/13 09:42:26;;;;;;;2.28;0.90;;;16.90;99.90;;;;;;5033062;28;20041;-68
2023/09/13 09:44:52;;;;;;;2.15;0.73;;;16.90;99.90;;;;;;5033320;28;20045;-68
2023/09/13 09:47:20;;;;;;;2.67;0.75;;;17.00;99.90;;;;;;5016808;28;20040;-68
2023/09/13 09:49:46;;;;;;;1.92;1.00;;;17.00;99.90;;;;;;5024404;28;20034;-69
2023/09/13 09:52:14;;;;;;;1.27;0.80;;;17.00;99.90;;;;;;5014017;28;20049;-69
2023/09/13 09:54:45;;;;;;;3.08;0.68;;;16.90;99.90;;;;;;4997194;28;20041;-71
2023/09/13 09:57:11;;;;;;;1.45;0.65;;;16.90;99.90;;;;;;4996425;28;20042;-71
2023/09/13 09:59:37;;;;;;;1.63;0.82;;;16.70;99.90;;;;;;5039425;28;20462;-68
2023/09/13 10:02:03;;;;;;;4.05;1.10;;;16.60;99.90;;;;;;5017479;28;20397;-67
2023/09/13 10:04:29;;;;;;;1.33;0.52;;;16.60;99.90;;;;;;5012930;28;20046;-70
2023/09/13 10:07:03;;;;;;;3.33;0.68;;;16.50;99.90;;;;;;5023549;28;20071;-69
2023/09/13 10:09:40;;;;;;;5.45;0.50;;;16.40;99.90;;;;;;5031989;28;20045;-69
2023/09/13 10:12:07;;;;;;;2.33;0.55;;;16.50;99.90;;;;;;5009228;28;20396;-69
2023/09/13 10:14:33;;;;;;;1.73;0.60;;;16.60;99.90;;;;;;5031871;28;20049;-68
2023/09/13 10:17:02;;;;;;;1.13;0.50;;;16.70;99.90;;;;;;5032070;28;20040;-69
2023/09/13 10:19:29;;;;;;;2.63;0.75;;;16.90;99.90;;;;;;5032976;28;20048;-69
2023/09/13 10:21:56;;;;;;;2.50;0.70;;;17.00;99.90;;;;;;5032729;28;20044;-69
2023/09/13 10:24:50;;;;;;;1.95;0.50;;;17.20;99.90;;;;;;5032365;28;20086;-68
2023/09/13 10:27:19;;;;;;;1.33;0.28;;;17.30;99.90;;;;;;5032961;28;20057;-69
2023/09/13 10:29:51;;;;;;;1.05;0.43;;;17.40;99.90;;;;;;5032816;28;20068;-69
2023/09/13 10:32:19;;;;;;;1.25;0.47;;;17.60;99.90;;;;;;5068681;28;20052;-68
2023/09/13 10:34:58;;;;;;;0.75;0.40;;;17.80;99.90;;;;;;5052442;28;20504;-70
2023/09/13 10:37:31;;;;;;;3.25;0.90;;;17.90;99.90;;;;;;5052081;28;20080;-70
2023/09/13 10:40:10;;;;;;;0.77;0.47;;;18.20;99.90;;;;;;5070559;28;20369;-69
2023/09/13 10:42:40;;;;;;;1.90;0.30;;;18.40;99.90;;;;;;5020110;28;20042;-69
2023/09/13 10:45:09;;;;;;;2.92;0.55;;;18.70;99.90;;;;;;5011393;28;20045;-69
2023/09/13 10:47:37;;;;;;;1.02;0.50;;;19.10;99.90;;;;;;5029583;28;20044;-69
2023/09/13 10:50:05;;;;;;;2.53;0.50;;;19.60;99.90;;;;;;5039877;28;20416;-70
2023/09/13 10:52:32;;;;;;;1.38;0.57;;;20.00;99.90;;;;;;5028488;28;20119;-70
2023/09/13 10:54:59;;;;;;;2.67;0.77;;;20.60;99.90;;;;;;5012558;28;20056;-70
2023/09/13 10:57:26;;;;;;;1.98;0.70;;;21.50;99.90;;;;;;5029274;28;20123;-70
2023/09/13 10:59:52;;;;;;;3.83;0.73;;;22.00;99.90;;;;;;5034696;28;20052;-72
2023/09/13 11:02:21;;;;;;;1.17;0.60;;;22.40;99.90;;;;;;5031877;28;20048;-69
2023/09/13 11:04:47;;;;;;;1.52;0.65;;;22.60;99.90;;;;;;5016066;28;20460;-70
2023/09/13 11:07:17;;;;;;;1.50;0.55;;;22.90;99.90;;;;;;5031849;28;20080;-70
2023/09/13 11:09:45;;;;;;;1.60;0.47;;;23.10;99.90;;;;;;5032305;28;20048;-70
2023/09/13 11:12:14;;;;;;;1.60;0.57;;;23.20;99.90;;;;;;5032286;28;20501;-70
2023/09/13 11:14:49;;;;;;;1.52;0.52;;;23.20;99.90;;;;;;5032474;28;20373;-69
2023/09/13 11:17:38;;;;;;;4.18;1.10;;;23.40;99.90;;;;;;5032439;28;20124;-70
2023/09/13 11:20:21;;;;;;;3.22;0.93;;;23.60;99.90;;;;;;5031977;28;20053;-69
2023/09/13 11:23:12;;;;;;;1.65;0.60;;;23.50;99.90;;;;;;5031766;28;20048;-70
2023/09/13 11:25:46;;;;;;;6.30;1.08;;;23.30;99.90;;;;;;5015597;28;20406;-70
2023/09/13 11:28:38;;;;;;;0.95;0.63;;;23.00;99.90;;;;;;5031443;28;20041;-69
2023/09/13 11:31:05;;;;;;;1.30;0.65;;;22.80;99.90;;;;;;5031865;28;20063;-69
2023/09/13 11:33:39;;;;;;;1.13;0.38;;;22.60;99.90;;;;;;5031815;28;20056;-69
2023/09/13 11:36:05;;;;;;;0.60;0.40;;;22.50;99.90;;;;;;5032196;28;20149;-68
2023/09/13 11:38:34;;;;;;;1.65;0.57;;;22.50;99.90;;;;;;5041645;28;20037;-69
2023/09/13 11:41:01;;;;;;;1.13;0.60;;;22.30;99.90;;;;;;5051648;28;20447;-69
2023/09/13 11:43:28;;;;;;;2.20;0.60;;;22.10;99.90;;;;;;5051747;28;20123;-70
2023/09/13 11:45:58;;;;;;;2.42;0.70;;;22.30;99.90;;;;;;5044024;28;20037;-68
2023/09/13 11:48:39;;;;;;;4.30;0.82;;;22.60;99.90;;;;;;5032042;28;20060;-69
2023/09/13 11:51:16;;;;;;;1.90;0.68;;;23.00;99.90;;;;;;5032703;28;20041;-69
2023/09/13 11:53:43;;;;;;;3.30;0.77;;;23.40;99.90;;;;;;5032098;28;20477;-71
2023/09/13 11:56:32;;;;;;;2.92;0.75;;;23.20;99.90;;;;;;5031661;28;20037;-69
2023/09/13 11:58:58;;;;;;;2.25;1.00;;;22.50;99.90;;;;;;5018748;28;20098;-68
2023/09/13 12:01:24;;;;;;;1.33;0.55;;;21.80;99.90;;;;;;5051149;28;20052;-69
2023/09/13 12:03:51;;;;;;;3.85;0.88;;;21.60;99.90;;;;;;5051459;28;20135;-70
2023/09/13 12:06:19;;;;;;;3.72;0.80;;;21.80;99.90;;;;;;5035058;28;20048;-69
2023/09/13 12:08:47;;;;;;;1.92;0.70;;;22.10;99.90;;;;;;5034524;28;20051;-70
2023/09/13 12:11:15;;;;;;;3.63;1.02;;;22.00;99.90;;;;;;5038093;28;20556;-69
2023/09/13 12:13:50;;;;;;;1.35;0.63;;;21.80;99.90;;;;;;5031414;28;20051;-69
2023/09/13 12:16:18;;;;;;;1.17;0.45;;;21.70;99.90;;;;;;5030687;28;20124;-69
2023/09/13 12:18:44;;;;;;;1.23;0.50;;;21.80;99.90;;;;;;5030978;28;20516;-68
2023/09/13 12:21:12;;;;;;;1.40;0.65;;;21.70;99.90;;;;;;5050945;28;20119;-69
2023/09/13 12:23:48;;;;;;;2.55;1.00;;;21.60;99.90;;;;;;5050643;28;20055;-68
2023/09/13 12:26:16;;;;;;;0.98;0.52;;;21.40;99.90;;;;;;5069064;28;20041;-68
2023/09/13 12:28:43;;;;;;;4.22;0.77;;;21.20;99.90;;;;;;5051202;28;20043;-68
2023/09/13 12:31:10;;;;;;;1.13;0.60;;;21.50;99.90;;;;;;5041298;28;20052;-69
2023/09/13 12:33:44;;;;;;;2.85;0.95;;;21.70;99.90;;;;;;5020637;28;20053;-69
2023/09/13 12:36:10;;;;;;;1.88;0.80;;;21.70;99.90;;;;;;4994767;28;20041;-68
2023/09/13 12:38:42;;;;;;;3.15;0.70;;;21.50;99.90;;;;;;5012176;28;20540;-67
2023/09/13 12:41:12;;;;;;;2.13;0.63;;;21.50;99.90;;;;;;5015066;28;20049;-67
2023/09/13 12:43:40;;;;;;;2.13;0.80;;;21.60;99.90;;;;;;5014215;28;20080;-68
2023/09/13 12:46:10;;;;;;;5.43;0.68;;;21.90;99.90;;;;;;5015136;28;20099;-69
2023/09/13 12:48:56;;;;;;;3.30;0.52;;;22.20;99.90;;;;;;5015458;28;20429;-68
2023/09/13 12:51:27;;;;;;;1.55;0.52;;;22.30;99.90;;;;;;5012422;28;20043;-69